Strait of Georgia - north of Nanaimo: Past 24 Hour Conditions

 

South Moresby - 46147

04:00 PM PST 21 November 2014Buoy position: 51.83N 131.23W
This table is a summary of hourly weather conditions for the past 24 hours.
Date / Time
(PST)
Wind(knots) Wave height(m) Wave period(s) Pressure(kPa) Air tempC) Water tempC)
21 November 2014
16:00 WNW 18 gust 23 4.2 17.0 99.2 10 11
15:00 WNW 18 gust 21 4.1 18.0 99.2 10 11
14:00 WNW 18 gust 23 4.3 9.0 99.2 10 11
13:00 W 21 gust 31 4.1 11.0 99.2 9 11
12:00 WNW 14 gust 19 4.4 10.0 99.2 10 11
11:00 W 19 gust 25 4.6 10.0 99.2 10 11
10:00 WNW 16 gust 21 3.8 10.0 99.2 10 11
9:00 W 16 gust 19 4.3 10.0 99.2 10 11
8:00 W 16 gust 19 4.2 10.0 99.2 10 11
7:00 W 18 gust 21 4.0 10.0 99.1 11 11
6:00 WNW 18 gust 25 4.3 10.0 99.1 10 11
5:00 WNW 21 gust 29 4.7 9.0 99.0 9 11
4:00 SSE 29 gust 37 4.5 9.0 99.1 10 11
3:00 SSE 31 gust 39 4.2 8.0 99.1 10 11
2:00 SSE 31 gust 41 3.5 7.0 99.3 10 11
1:00 SSE 29 gust 37 2.9 6.0 99.4 11 11
0:00 SSE 31 gust 39 2.9 6.0 99.6 11 11
20 November 2014
23:00 SSE 25 gust 31 2.6 11.0 99.7 11 11
22:00 SSE 25 gust 31 3.1 13.0 99.8 11 11
21:00 S 21 gust 27 3.0 10.0 100.0 11 11
20:00 S 19 gust 21 2.7 13.0 100.0 11 11
19:00 S 18 gust 23 2.8 9.0 100.1 10 11
18:00 SW 16 gust 19 3.1 9.0 100.1 10 11
17:00 WSW 16 gust 19 2.9 8.0 100.1 10 11
16:00 WSW 19 gust 25 3.0 8.0 100.0 10 11
 
Map of Pacific - South Coast marine weather areas Tsawwassen Ferry Terminal South Nomad - 46036 Sentry Shoal - 46131 South Brooks - 46132 Halibut Bank - 46146 South Moresby - 46147 South Hecate Strait - 46185 West Sea Otter - 46204 La Perouse Bank - 46206 East Dellwood - 46207 Discovery Island Esquimalt Harbour Kelp Reefs Malahat Race Rocks Lightstation Saturna Island Sheringham Point University of Victoria Victoria Gonzales Victoria Int'l Airport Ballenas Islands Campbell River Airport Comox Airport Entrance Island Fanny Island Nanaimo Airport Port Hardy Airport Sisters Islets Estevan Point Sartine Island Solander Island Tofino Airport Grief Point Powell River Airport Sechelt Cape St.James Bella Bella Airport Bella Coola Airport Cathedral Point Herbert Island Point Atkinson Sand Heads Lightstation Vancouver Harbour Vancouver Int'l Airport West Vancouver Port Alberni Howe Sound - Pam Rocks Squamish Airport